Accueil
METAR-TAF:

METAR-TAF

Aéroports :

Aéroport international Antonio-B.-Won-Pat de Guam

Hagåtña, Guam, États-Unis

latitude: 13-29N, longitude: 144-48E, altitude: 91 m

Observation

Le bulletin a été fait il y a 54 minutes, à 04:54 UTC
Vent 7 kt de est, variant entre est/nord-est et sud/sud-est
Température 32°C
Humidité 59%
Pression 1011 hPa
Visibilité: 16.1 km
Quelques nuages à une hauteur de 2500 ft

METAR: PGUM 150454Z 10007KT 060V150 10SM FEW025 32/23 A2986 RMK AO2 SLP101 T03220233 $

Heure: 15:48 (05:48 UTC)

Prévision

Le bulletin a été fait il y a 15 minutes, à 05:33 UTC
Prévision valable du 15 à 06 UTC au 16 à 12 UTC
Vent 6 kt de est/sud-est
Visibilité: 10 km
Quelques nuages à une hauteur de 2000 ft
Nuages épars à une hauteur de 3500 ft

TAF: PGUM 150533Z 1506/1612 11006KT P6SM FEW020 SCT035

Observations et prévisions météorologiques de plus de 4000 aéroports (messages METAR et TAF).

Les stations disponibles sont représentées par des disques jaunes et rouges sur la carte.

Passer la souris dessus pour voir le nom de la station.

Cliquer dessus pour voir les observations et prévisions météorologiques.

Pour changer de carte: cliquez sur les boutons verts avec une croix noire pour zoomer, sur le bouton vert avec un tiret pour effectuer un zoom arrière, ou sur les flèches vertes pour les cartes adjacentes.


METAR-TAF: